Time;durP1;ratioP1;P1;durP2;ratioP2;P2;SDS_P1;SDS_P2;PMS_P1;PMS_P2;Temp;Humidity;BMP_temperature;BMP_pressure;BME280_temperature;BME280_humidity;BME280_pressure;Samples;Min_cycle;Max_cycle;Signal;HPM_P1;HPM_P2
2022/11/23 00:01:16;;;;;;;1.10;1.10;;;5.80;99.90;;;;;;5032073;28;20302;-49
2022/11/23 00:03:43;;;;;;;3.07;1.77;;;5.80;99.90;;;;;;5024345;28;20207;-49
2022/11/23 00:06:10;;;;;;;2.73;1.60;;;5.70;99.90;;;;;;5032494;28;20236;-49
2022/11/23 00:08:37;;;;;;;2.20;1.60;;;5.80;99.90;;;;;;5026134;28;20676;-49
2022/11/23 00:11:06;;;;;;;2.10;1.33;;;5.80;99.90;;;;;;5025984;28;20227;-50
2022/11/23 00:13:34;;;;;;;1.90;1.50;;;5.80;99.90;;;;;;5022832;28;20205;-49
2022/11/23 00:16:01;;;;;;;3.70;1.10;;;5.80;99.90;;;;;;5029655;28;20277;-50
2022/11/23 00:18:28;;;;;;;1.67;1.57;;;5.80;99.90;;;;;;5032082;28;20606;-50
2022/11/23 00:20:55;;;;;;;1.63;1.07;;;5.80;99.90;;;;;;5024064;28;20206;-50
2022/11/23 00:23:22;;;;;;;1.50;1.20;;;5.80;99.90;;;;;;5023777;28;21125;-50
2022/11/23 00:25:49;;;;;;;2.80;1.70;;;5.70;99.90;;;;;;5030301;28;20221;-52
2022/11/23 00:28:17;;;;;;;1.67;1.57;;;5.70;99.90;;;;;;5023420;28;20210;-50
2022/11/23 00:30:49;;;;;;;2.00;1.33;;;5.70;99.90;;;;;;5014312;28;20200;-50
2022/11/23 00:33:16;;;;;;;1.40;1.27;;;5.60;99.90;;;;;;5012466;28;20238;-50
2022/11/23 00:35:44;;;;;;;1.33;1.17;;;5.60;99.90;;;;;;5013015;28;20228;-50
2022/11/23 00:38:11;;;;;;;2.17;1.60;;;5.60;99.90;;;;;;5027080;28;20217;-51
2022/11/23 00:40:38;;;;;;;1.67;1.07;;;5.60;99.90;;;;;;5022804;28;20210;-50
2022/11/23 00:43:05;;;;;;;2.07;1.17;;;5.70;99.90;;;;;;5019005;28;20205;-51
2022/11/23 00:45:33;;;;;;;1.57;1.20;;;5.70;99.90;;;;;;5024933;28;20215;-50
2022/11/23 00:48:01;;;;;;;1.30;1.13;;;5.70;99.90;;;;;;5012335;28;20189;-50
2022/11/23 00:50:28;;;;;;;1.33;1.13;;;5.70;99.90;;;;;;5031707;28;20231;-50
2022/11/23 00:52:55;;;;;;;0.80;0.80;;;5.60;99.90;;;;;;5023081;28;20696;-49
2022/11/23 00:55:22;;;;;;;2.53;0.90;;;5.70;99.90;;;;;;5016729;28;20229;-49
2022/11/23 00:57:49;;;;;;;3.47;1.10;;;5.70;99.90;;;;;;5012710;28;20231;-50
2022/11/23 01:00:17;;;;;;;1.20;1.10;;;5.70;99.90;;;;;;5019556;28;20208;-49
2022/11/23 01:02:45;;;;;;;1.07;1.00;;;5.70;99.90;;;;;;5021253;28;20220;-49
2022/11/23 01:05:12;;;;;;;0.93;0.93;;;5.70;99.90;;;;;;5023332;28;20227;-50
2022/11/23 01:07:39;;;;;;;1.80;0.70;;;5.70;99.90;;;;;;5023320;28;20204;-49
2022/11/23 01:10:07;;;;;;;1.67;0.90;;;5.70;99.90;;;;;;5023686;28;20697;-49
2022/11/23 01:12:34;;;;;;;1.57;0.83;;;5.60;99.90;;;;;;5032203;28;20713;-50
2022/11/23 01:15:01;;;;;;;3.03;0.80;;;5.70;99.90;;;;;;5026615;28;20228;-50
2022/11/23 01:17:28;;;;;;;2.47;0.97;;;5.70;99.90;;;;;;5024973;28;20228;-49
2022/11/23 01:19:57;;;;;;;0.77;0.77;;;5.70;99.90;;;;;;5030906;28;20213;-50
2022/11/23 01:22:24;;;;;;;0.73;0.70;;;5.70;99.90;;;;;;5023413;28;20203;-49
2022/11/23 01:24:51;;;;;;;2.50;0.60;;;5.60;99.90;;;;;;5028447;28;20590;-50
2022/11/23 01:27:18;;;;;;;0.80;0.80;;;5.60;99.90;;;;;;5020122;28;20230;-51
2022/11/23 01:29:45;;;;;;;0.97;0.70;;;5.60;99.90;;;;;;5021493;28;20208;-50
2022/11/23 01:32:12;;;;;;;1.33;0.67;;;5.60;99.90;;;;;;5026370;28;20843;-49
2022/11/23 01:34:39;;;;;;;1.90;0.70;;;5.60;99.90;;;;;;5020156;28;20220;-49
2022/11/23 01:37:07;;;;;;;3.20;0.87;;;5.60;99.90;;;;;;5018509;28;20633;-50
2022/11/23 01:39:34;;;;;;;1.30;0.70;;;5.60;99.90;;;;;;5019721;28;20536;-50
2022/11/23 01:42:05;;;;;;;1.23;0.77;;;5.70;99.90;;;;;;5019767;28;20205;-50
2022/11/23 01:44:33;;;;;;;0.60;0.60;;;5.70;99.90;;;;;;5022083;28;20220;-49
2022/11/23 01:47:02;;;;;;;0.90;0.60;;;5.70;99.90;;;;;;5031190;28;20666;-50
2022/11/23 01:49:36;;;;;;;1.40;0.80;;;5.70;99.90;;;;;;5030264;28;20657;-49
2022/11/23 01:52:08;;;;;;;1.00;0.53;;;5.60;99.90;;;;;;5019412;28;20223;-51
2022/11/23 01:54:41;;;;;;;3.30;0.90;;;5.60;99.90;;;;;;5012035;28;20237;-49
2022/11/23 01:57:12;;;;;;;0.73;0.67;;;5.70;99.90;;;;;;5023700;28;20212;-50
2022/11/23 01:59:39;;;;;;;0.93;0.60;;;5.80;99.90;;;;;;5031104;28;20211;-49
2022/11/23 02:02:06;;;;;;;0.50;0.50;;;5.70;99.90;;;;;;5030921;28;20208;-50
2022/11/23 02:04:37;;;;;;;1.77;0.63;;;5.60;99.90;;;;;;5029538;28;20228;-49
2022/11/23 02:07:05;;;;;;;4.33;0.97;;;5.60;99.90;;;;;;5018947;28;20200;-49
2022/11/23 02:09:36;;;;;;;1.97;0.53;;;5.60;99.90;;;;;;5019283;28;20202;-50
2022/11/23 02:12:03;;;;;;;3.13;0.60;;;5.60;99.90;;;;;;5018718;28;20682;-51
2022/11/23 02:14:31;;;;;;;1.57;0.70;;;5.60;99.90;;;;;;5027123;28;20608;-51
2022/11/23 02:16:59;;;;;;;0.60;0.60;;;5.50;99.90;;;;;;5031071;28;20209;-49
2022/11/23 02:19:34;;;;;;;1.13;1.03;;;5.60;99.90;;;;;;5027965;28;20258;-49
2022/11/23 02:22:02;;;;;;;0.50;0.50;;;5.60;99.90;;;;;;5026518;28;20199;-49
2022/11/23 02:24:39;;;;;;;1.83;0.80;;;5.70;99.90;;;;;;5018527;28;20223;-50
2022/11/23 02:27:08;;;;;;;1.87;0.67;;;5.80;99.90;;;;;;5019222;28;20210;-50
2022/11/23 02:29:35;;;;;;;2.93;0.70;;;5.80;99.90;;;;;;5021127;28;20201;-49
2022/11/23 02:32:02;;;;;;;1.00;1.00;;;5.70;99.90;;;;;;5026317;28;20202;-48
2022/11/23 02:34:32;;;;;;;2.90;0.60;;;5.70;99.90;;;;;;5018194;28;20630;-50
2022/11/23 02:36:59;;;;;;;1.30;0.60;;;5.60;99.90;;;;;;5010821;28;20212;-49
2022/11/23 02:39:32;;;;;;;0.60;0.60;;;5.60;99.90;;;;;;5010722;28;20244;-49
2022/11/23 02:42:00;;;;;;;0.63;0.63;;;5.40;99.90;;;;;;5011127;28;20218;-49
2022/11/23 02:44:42;;;;;;;1.53;0.63;;;5.40;99.90;;;;;;5018609;28;20227;-51
2022/11/23 02:47:10;;;;;;;2.60;1.10;;;5.50;99.90;;;;;;5023372;28;20208;-49
2022/11/23 02:49:39;;;;;;;2.17;1.27;;;5.50;99.90;;;;;;5030400;28;20213;-50
2022/11/23 02:52:06;;;;;;;1.13;1.03;;;5.50;99.90;;;;;;5030357;28;20231;-49
2022/11/23 02:54:33;;;;;;;1.13;1.03;;;5.50;99.90;;;;;;5020792;28;20699;-49
2022/11/23 02:57:01;;;;;;;1.47;0.80;;;5.50;99.90;;;;;;5020556;28;20210;-51
2022/11/23 02:59:32;;;;;;;1.30;0.80;;;5.40;99.90;;;;;;5028962;28;20225;-49
2022/11/23 03:01:59;;;;;;;2.00;1.27;;;5.40;99.90;;;;;;5017658;28;20206;-48
2022/11/23 03:04:26;;;;;;;1.50;1.40;;;5.40;99.90;;;;;;5028435;28;20225;-50
2022/11/23 03:06:54;;;;;;;0.80;0.80;;;5.40;99.90;;;;;;5034193;28;20595;-50
2022/11/23 03:09:21;;;;;;;1.80;1.20;;;5.30;99.90;;;;;;5034011;28;20251;-50
2022/11/23 03:11:48;;;;;;;0.80;0.80;;;5.20;99.90;;;;;;5029630;28;20204;-49
2022/11/23 03:14:16;;;;;;;1.40;1.30;;;5.30;99.90;;;;;;5025569;28;20226;-49
2022/11/23 03:16:44;;;;;;;2.30;0.80;;;5.30;99.90;;;;;;5022484;28;20212;-50
2022/11/23 03:19:11;;;;;;;0.80;0.70;;;5.30;99.90;;;;;;5015362;28;20846;-48
2022/11/23 03:21:38;;;;;;;1.17;1.03;;;5.30;99.90;;;;;;5033473;28;20208;-50
2022/11/23 03:24:06;;;;;;;0.90;0.60;;;5.20;99.90;;;;;;5031638;28;20204;-49
2022/11/23 03:26:33;;;;;;;1.53;0.70;;;5.20;99.90;;;;;;5027173;28;20209;-49
2022/11/23 03:29:00;;;;;;;0.77;0.73;;;5.20;99.90;;;;;;5017160;28;20199;-49
2022/11/23 03:31:27;;;;;;;2.20;0.80;;;5.10;99.90;;;;;;5028860;28;20211;-49
2022/11/23 03:33:55;;;;;;;2.20;0.70;;;5.20;99.90;;;;;;5032773;28;20211;-48
2022/11/23 03:36:22;;;;;;;0.80;0.80;;;5.20;99.90;;;;;;5032603;28;20225;-49
2022/11/23 03:38:49;;;;;;;2.73;0.83;;;5.10;99.90;;;;;;5025233;28;20252;-49
2022/11/23 03:41:16;;;;;;;1.47;1.20;;;5.10;99.90;;;;;;5030075;28;20208;-50
2022/11/23 03:43:43;;;;;;;0.73;0.70;;;5.00;99.90;;;;;;5014751;28;20209;-49
2022/11/23 03:46:10;;;;;;;1.27;1.13;;;5.00;99.90;;;;;;5013526;28;20733;-49
2022/11/23 03:48:37;;;;;;;1.30;1.10;;;4.90;99.90;;;;;;5020964;28;20210;-49
2022/11/23 03:51:06;;;;;;;1.60;1.10;;;4.90;99.90;;;;;;5025167;28;20724;-48
2022/11/23 03:53:33;;;;;;;2.00;0.80;;;4.90;99.90;;;;;;5032800;28;20223;-49
2022/11/23 03:56:00;;;;;;;2.43;1.03;;;4.80;99.90;;;;;;5067286;23;20252;-50
2022/11/23 03:58:27;;;;;;;2.57;1.63;;;4.70;99.90;;;;;;5028680;28;20291;-49
2022/11/23 04:00:55;;;;;;;0.80;0.80;;;4.70;99.90;;;;;;5020058;28;20209;-50
2022/11/23 04:03:22;;;;;;;0.97;0.97;;;4.70;99.90;;;;;;5023468;28;20228;-50
2022/11/23 04:05:49;;;;;;;1.63;1.40;;;4.70;99.90;;;;;;5022435;28;20232;-50
2022/11/23 04:08:17;;;;;;;1.50;1.40;;;4.60;99.90;;;;;;5021865;28;20194;-49
2022/11/23 04:10:44;;;;;;;1.30;1.30;;;4.50;99.90;;;;;;5018310;28;20203;-49
2022/11/23 04:13:11;;;;;;;1.00;1.00;;;4.50;99.90;;;;;;5030654;28;20209;-50
2022/11/23 04:15:38;;;;;;;1.13;1.13;;;4.50;99.90;;;;;;5024332;28;20225;-50
2022/11/23 04:18:05;;;;;;;1.70;1.03;;;4.40;99.90;;;;;;5013105;28;20606;-50
2022/11/23 04:20:32;;;;;;;1.47;1.00;;;4.40;99.90;;;;;;5014710;28;20689;-48
2022/11/23 04:22:59;;;;;;;1.77;1.00;;;4.30;99.90;;;;;;5021062;28;20676;-52
2022/11/23 04:25:27;;;;;;;0.87;0.87;;;4.30;99.90;;;;;;5016850;28;20298;-49
2022/11/23 04:27:54;;;;;;;1.80;1.40;;;4.30;99.90;;;;;;5031168;28;20212;-49
2022/11/23 04:30:22;;;;;;;1.43;1.00;;;4.30;99.90;;;;;;5018186;28;20209;-51
2022/11/23 04:32:49;;;;;;;1.30;1.20;;;4.30;99.90;;;;;;5021218;28;20292;-50
2022/11/23 04:35:16;;;;;;;1.20;1.10;;;4.30;99.90;;;;;;5012346;28;20236;-50
2022/11/23 04:37:43;;;;;;;1.73;1.53;;;4.30;99.90;;;;;;5013074;28;20210;-50
2022/11/23 04:40:10;;;;;;;2.13;2.03;;;4.20;99.90;;;;;;5027959;28;20221;-50
2022/11/23 04:42:39;;;;;;;2.20;2.10;;;4.20;99.90;;;;;;5015895;28;20196;-50
2022/11/23 04:45:06;;;;;;;1.73;1.63;;;4.20;99.90;;;;;;5030267;28;20219;-49
2022/11/23 04:47:33;;;;;;;1.97;1.50;;;4.20;99.90;;;;;;5032537;28;20262;-50
2022/11/23 04:50:00;;;;;;;1.77;1.10;;;4.20;99.90;;;;;;5030472;28;20250;-50
2022/11/23 04:52:27;;;;;;;3.37;1.63;;;4.10;99.90;;;;;;5022933;28;20251;-50
2022/11/23 04:54:54;;;;;;;1.63;1.57;;;4.10;99.90;;;;;;5028602;28;20232;-50
2022/11/23 04:57:21;;;;;;;4.63;1.63;;;4.10;99.90;;;;;;5021356;28;20209;-50
2022/11/23 04:59:49;;;;;;;1.50;1.40;;;4.00;99.90;;;;;;5020726;28;20222;-50
2022/11/23 05:02:16;;;;;;;1.60;1.47;;;4.00;99.90;;;;;;5020622;28;20264;-50
2022/11/23 05:04:43;;;;;;;5.87;1.57;;;4.00;99.90;;;;;;5020037;28;20306;-50
2022/11/23 05:07:10;;;;;;;3.50;1.30;;;4.00;99.90;;;;;;5023252;28;20207;-51
2022/11/23 05:09:37;;;;;;;1.63;1.53;;;3.90;99.90;;;;;;5028527;28;20196;-49
2022/11/23 05:12:05;;;;;;;3.80;1.80;;;3.90;99.90;;;;;;5024797;28;20197;-49
2022/11/23 05:14:33;;;;;;;1.77;1.67;;;3.80;99.90;;;;;;5023254;28;20286;-50
2022/11/23 05:17:02;;;;;;;3.27;1.53;;;3.70;99.90;;;;;;5018362;28;20258;-48
2022/11/23 05:19:30;;;;;;;3.33;3.10;;;3.70;99.90;;;;;;5019690;28;20225;-48
2022/11/23 05:21:57;;;;;;;3.83;3.03;;;3.70;99.90;;;;;;5024808;28;20197;-50
2022/11/23 05:24:24;;;;;;;9.00;6.27;;;3.70;99.90;;;;;;5020576;28;20233;-50
2022/11/23 05:26:51;;;;;;;7.87;6.13;;;3.60;99.90;;;;;;5022628;28;20559;-49
2022/11/23 05:29:18;;;;;;;6.10;5.60;;;3.60;99.90;;;;;;5020508;28;20200;-49
2022/11/23 05:31:45;;;;;;;4.53;4.13;;;3.50;99.90;;;;;;5021443;28;20574;-50
2022/11/23 05:34:13;;;;;;;4.40;4.03;;;3.60;99.90;;;;;;5027119;28;20209;-49
2022/11/23 05:36:40;;;;;;;5.63;3.43;;;3.60;99.90;;;;;;5021102;28;20270;-50
2022/11/23 05:39:07;;;;;;;5.03;3.10;;;3.70;99.90;;;;;;5029734;28;20219;-49
2022/11/23 05:41:34;;;;;;;4.10;2.83;;;3.70;99.90;;;;;;5025973;28;20211;-49
2022/11/23 05:44:01;;;;;;;5.57;4.40;;;3.60;99.90;;;;;;5028492;28;20278;-49
2022/11/23 05:46:28;;;;;;;3.17;2.87;;;3.60;99.90;;;;;;5028174;28;20238;-49
2022/11/23 05:48:55;;;;;;;4.70;2.77;;;3.70;99.90;;;;;;5020311;28;20295;-50
2022/11/23 05:51:24;;;;;;;3.97;2.60;;;3.60;99.90;;;;;;5012931;28;20620;-49
2022/11/23 05:53:50;;;;;;;2.53;2.33;;;3.60;99.90;;;;;;5018016;28;20203;-50
2022/11/23 05:56:17;;;;;;;3.90;2.60;;;3.50;99.90;;;;;;5019750;28;20263;-50
2022/11/23 05:58:45;;;;;;;3.17;2.50;;;3.40;99.90;;;;;;5013714;28;20289;-49
2022/11/23 06:01:13;;;;;;;4.67;3.30;;;3.40;99.90;;;;;;5015901;28;20205;-51
2022/11/23 06:03:40;;;;;;;4.33;2.80;;;3.40;99.90;;;;;;5014225;28;20201;-49
2022/11/23 06:06:07;;;;;;;3.03;2.83;;;3.30;99.90;;;;;;5026318;28;20226;-49
2022/11/23 06:08:36;;;;;;;3.00;2.80;;;3.30;99.90;;;;;;5022216;28;20251;-50
2022/11/23 06:11:05;;;;;;;4.43;3.30;;;3.30;99.90;;;;;;5023149;28;20729;-49
2022/11/23 06:13:32;;;;;;;5.83;2.63;;;3.30;99.90;;;;;;5025465;28;20204;-49
2022/11/23 06:15:59;;;;;;;2.97;2.60;;;3.20;99.90;;;;;;5016143;28;20225;-50
2022/11/23 06:18:26;;;;;;;9.13;3.97;;;3.20;99.90;;;;;;5018881;28;20198;-49
2022/11/23 06:20:53;;;;;;;6.83;6.17;;;3.20;99.90;;;;;;5012471;28;20205;-51
2022/11/23 06:23:20;;;;;;;8.63;5.70;;;3.20;99.90;;;;;;5025461;28;20215;-49
2022/11/23 06:25:48;;;;;;;5.23;4.43;;;3.20;99.90;;;;;;5031834;28;20321;-49
2022/11/23 06:28:15;;;;;;;3.77;3.13;;;3.10;99.90;;;;;;5027948;28;20257;-50
2022/11/23 06:30:42;;;;;;;6.97;3.93;;;3.10;99.90;;;;;;5021863;28;20650;-49
2022/11/23 06:33:10;;;;;;;4.33;2.77;;;3.10;99.90;;;;;;5023798;28;20663;-51
2022/11/23 06:35:37;;;;;;;3.30;2.73;;;3.10;99.90;;;;;;5030192;28;20365;-50
2022/11/23 06:38:04;;;;;;;2.60;2.40;;;3.10;99.90;;;;;;5024468;28;20204;-50
2022/11/23 06:40:31;;;;;;;2.93;2.53;;;3.20;99.90;;;;;;5027385;28;20224;-49
2022/11/23 06:43:00;;;;;;;2.40;2.20;;;3.20;99.90;;;;;;5026567;28;20258;-49
2022/11/23 06:45:27;;;;;;;2.60;2.40;;;3.20;99.90;;;;;;5032518;28;20282;-50
2022/11/23 06:47:55;;;;;;;5.70;3.27;;;3.30;99.90;;;;;;5027051;28;20208;-50
2022/11/23 06:50:23;;;;;;;4.20;2.70;;;3.30;99.90;;;;;;5026624;28;20673;-49
2022/11/23 06:52:55;;;;;;;5.53;3.03;;;3.30;99.90;;;;;;5025049;28;20243;-51
2022/11/23 06:55:22;;;;;;;3.80;2.50;;;3.30;99.90;;;;;;5027950;28;20264;-50
2022/11/23 06:57:49;;;;;;;2.90;1.90;;;3.30;99.90;;;;;;5024621;28;20213;-50
2022/11/23 07:00:19;;;;;;;4.33;2.50;;;3.30;99.90;;;;;;5021114;28;20303;-50
2022/11/23 07:02:52;;;;;;;6.07;3.60;;;3.30;99.90;;;;;;5033740;28;20238;-49
2022/11/23 07:05:19;;;;;;;3.03;2.80;;;3.30;99.90;;;;;;5020296;28;20233;-51
2022/11/23 07:07:46;;;;;;;5.53;2.57;;;3.30;99.90;;;;;;5022843;28;20208;-49
2022/11/23 07:10:13;;;;;;;2.40;2.20;;;3.30;99.90;;;;;;5027728;28;20206;-50
2022/11/23 07:12:41;;;;;;;4.07;2.70;;;3.30;99.90;;;;;;5031636;28;20244;-50
2022/11/23 07:15:09;;;;;;;5.13;3.70;;;3.40;99.90;;;;;;5030892;28;20583;-50
2022/11/23 07:17:40;;;;;;;4.43;4.03;;;3.40;99.90;;;;;;5020385;28;20205;-50
2022/11/23 07:20:09;;;;;;;9.53;6.33;;;3.40;99.90;;;;;;5026484;28;20224;-50
2022/11/23 07:22:37;;;;;;;7.53;6.47;;;3.40;99.90;;;;;;5027325;28;20213;-50
2022/11/23 07:25:05;;;;;;;15.03;6.87;;;3.50;99.90;;;;;;5022899;28;20221;-51
2022/11/23 07:27:32;;;;;;;12.67;7.23;;;3.60;99.90;;;;;;5029447;28;20212;-50
2022/11/23 07:29:59;;;;;;;6.73;6.03;;;3.70;99.90;;;;;;5023844;28;20678;-49
2022/11/23 07:32:26;;;;;;;6.50;5.33;;;3.80;99.90;;;;;;5032173;28;20205;-50
2022/11/23 07:34:55;;;;;;;13.90;5.30;;;3.80;99.90;;;;;;5019339;28;20221;-50
2022/11/23 07:37:22;;;;;;;6.80;4.33;;;3.70;99.90;;;;;;5030715;28;20214;-50
2022/11/23 07:39:51;;;;;;;5.40;3.40;;;3.70;99.90;;;;;;5033696;28;20569;-49
2022/11/23 07:42:19;;;;;;;4.53;3.00;;;3.70;99.90;;;;;;5033817;28;20200;-49
2022/11/23 07:44:46;;;;;;;3.37;2.67;;;3.70;99.90;;;;;;5033187;28;20247;-49
2022/11/23 07:47:13;;;;;;;6.07;3.53;;;3.70;99.90;;;;;;5024687;28;20273;-50
2022/11/23 07:49:40;;;;;;;3.30;2.77;;;3.70;99.90;;;;;;5016818;28;20266;-50
2022/11/23 07:52:09;;;;;;;3.07;2.83;;;3.70;99.90;;;;;;5019899;28;20288;-51
2022/11/23 07:54:36;;;;;;;6.20;2.90;;;3.70;99.90;;;;;;5029556;28;20717;-50
2022/11/23 07:57:03;;;;;;;4.57;3.47;;;3.90;99.90;;;;;;5028319;28;20624;-49
2022/11/23 07:59:32;;;;;;;9.20;3.40;;;4.00;99.90;;;;;;5026059;28;20228;-50
2022/11/23 08:01:59;;;;;;;4.43;3.10;;;3.90;99.90;;;;;;5031438;28;20261;-50
2022/11/23 08:04:26;;;;;;;3.33;2.00;;;4.00;99.90;;;;;;5024559;28;20208;-51
2022/11/23 08:06:54;;;;;;;2.33;2.17;;;4.10;99.90;;;;;;5024328;28;20209;-50
2022/11/23 08:09:22;;;;;;;2.53;2.33;;;4.20;99.90;;;;;;5018930;28;20380;-50
2022/11/23 08:11:49;;;;;;;2.33;2.17;;;4.20;99.90;;;;;;5022857;28;20209;-50
2022/11/23 08:14:16;;;;;;;3.77;2.10;;;4.20;99.90;;;;;;5032522;28;20258;-50
2022/11/23 08:16:43;;;;;;;6.50;2.53;;;4.30;99.90;;;;;;5026719;28;20215;-50
2022/11/23 08:19:10;;;;;;;1.97;1.80;;;4.50;99.90;;;;;;5019758;28;20251;-51
2022/11/23 08:21:37;;;;;;;2.90;1.80;;;4.50;99.90;;;;;;5020271;28;20586;-51
2022/11/23 08:24:04;;;;;;;4.00;2.47;;;4.60;99.90;;;;;;5021797;28;20204;-51
2022/11/23 08:26:32;;;;;;;2.17;1.97;;;4.70;99.90;;;;;;5027081;28;20220;-52
2022/11/23 08:28:59;;;;;;;10.20;2.33;;;4.80;99.90;;;;;;5032055;28;20251;-49
2022/11/23 08:31:26;;;;;;;1.67;1.57;;;5.00;99.90;;;;;;5017695;28;20263;-50
2022/11/23 08:33:53;;;;;;;2.50;2.07;;;5.30;99.90;;;;;;5018255;28;20272;-50
2022/11/23 08:36:21;;;;;;;4.33;2.07;;;5.50;99.90;;;;;;5019122;28;20223;-50
2022/11/23 08:38:50;;;;;;;2.97;1.37;;;5.80;99.90;;;;;;5028928;28;20198;-50
2022/11/23 08:41:19;;;;;;;2.73;1.57;;;6.10;99.90;;;;;;5020621;28;20220;-50
2022/11/23 08:43:48;;;;;;;6.47;1.83;;;6.50;99.90;;;;;;5025218;28;20235;-50
2022/11/23 08:46:15;;;;;;;2.53;1.30;;;7.00;99.90;;;;;;5021111;28;20226;-50
2022/11/23 08:48:42;;;;;;;3.43;1.63;;;7.40;99.90;;;;;;5025715;28;20674;-50
2022/11/23 08:51:09;;;;;;;1.80;1.30;;;7.70;99.90;;;;;;5015596;28;20627;-51
2022/11/23 08:53:36;;;;;;;1.87;1.30;;;7.70;99.90;;;;;;5030831;28;20244;-50
2022/11/23 08:56:05;;;;;;;3.03;1.33;;;8.00;99.90;;;;;;5032425;28;20791;-50
2022/11/23 08:58:33;;;;;;;2.93;1.40;;;8.20;99.90;;;;;;5032417;28;20216;-50
2022/11/23 09:01:01;;;;;;;2.23;1.00;;;8.30;99.90;;;;;;5035007;28;20227;-49
2022/11/23 09:03:28;;;;;;;1.53;0.70;;;8.40;99.90;;;;;;5031589;28;20262;-50
2022/11/23 09:05:59;;;;;;;3.20;1.03;;;8.30;99.90;;;;;;5027272;28;20227;-51
2022/11/23 09:08:27;;;;;;;2.77;1.80;;;8.40;99.90;;;;;;5023282;28;20200;-50
2022/11/23 09:10:54;;;;;;;4.63;1.93;;;8.30;99.90;;;;;;5029223;28;20201;-50
2022/11/23 09:13:21;;;;;;;1.40;0.90;;;8.50;99.90;;;;;;5024318;28;20262;-50
2022/11/23 09:15:48;;;;;;;4.17;1.63;;;8.80;99.90;;;;;;5023232;28;20222;-50
2022/11/23 09:18:16;;;;;;;1.27;1.00;;;8.90;99.90;;;;;;5023489;28;20203;-50
2022/11/23 09:20:43;;;;;;;1.23;1.13;;;8.70;99.90;;;;;;5021529;28;20772;-50
2022/11/23 09:23:10;;;;;;;1.43;1.33;;;8.40;99.90;;;;;;5025921;28;20213;-50
2022/11/23 09:25:37;;;;;;;3.17;1.00;;;8.30;99.90;;;;;;5015801;28;20297;-51
2022/11/23 09:28:04;;;;;;;1.70;0.63;;;8.10;99.90;;;;;;5032860;28;20195;-50
2022/11/23 09:30:31;;;;;;;3.67;0.70;;;7.90;99.90;;;;;;5032213;28;20620;-51
2022/11/23 09:32:58;;;;;;;0.83;0.67;;;7.60;99.90;;;;;;5025993;28;20207;-53
2022/11/23 09:35:27;;;;;;;1.80;0.67;;;7.50;99.90;;;;;;5016753;28;20228;-49
2022/11/23 09:37:58;;;;;;;3.40;1.63;;;7.50;99.90;;;;;;5030302;28;20215;-51
2022/11/23 09:40:28;;;;;;;3.17;1.97;;;7.60;99.90;;;;;;5031687;28;20673;-49
2022/11/23 09:43:08;;;;;;;5.37;2.23;;;7.80;99.90;;;;;;5032347;28;20204;-50
2022/11/23 09:45:40;;;;;;;3.83;2.30;;;7.80;99.90;;;;;;5031946;28;20277;-49
2022/11/23 09:48:43;;;;;;;3.00;1.87;;;7.90;99.90;;;;;;5031752;28;20216;-49
2022/11/23 09:51:17;;;;;;;2.27;1.90;;;8.10;99.90;;;;;;4978675;28;20233;-51
2022/11/23 09:53:47;;;;;;;2.90;1.80;;;8.20;99.90;;;;;;5013638;28;20223;-50
2022/11/23 09:56:18;;;;;;;5.97;2.80;;;8.50;99.90;;;;;;5031652;28;20232;-49
2022/11/23 09:58:46;;;;;;;2.80;1.67;;;8.80;99.90;;;;;;5031792;28;20208;-49
2022/11/23 10:01:15;;;;;;;1.37;1.07;;;9.10;99.90;;;;;;5044251;28;20230;-49
2022/11/23 10:03:44;;;;;;;1.47;1.03;;;9.60;99.90;;;;;;5034451;28;20206;-50
2022/11/23 10:06:18;;;;;;;1.80;1.00;;;10.00;99.90;;;;;;5031594;28;20633;-50
2022/11/23 10:08:59;;;;;;;2.33;0.87;;;10.10;99.90;;;;;;5031730;28;20198;-50
2022/11/23 10:11:39;;;;;;;1.67;0.70;;;10.40;99.90;;;;;;5032383;28;20259;-53
2022/11/23 10:14:20;;;;;;;0.80;0.80;;;10.70;99.90;;;;;;5035126;28;20258;-50
2022/11/23 10:16:55;;;;;;;0.97;0.60;;;10.90;99.90;;;;;;5035750;28;20578;-50
2022/11/23 10:19:32;;;;;;;0.50;0.50;;;11.00;99.90;;;;;;5035678;28;20258;-53
2022/11/23 10:22:10;;;;;;;0.90;0.60;;;11.10;99.90;;;;;;5035389;28;20679;-52
2022/11/23 10:24:42;;;;;;;3.60;0.50;;;10.90;99.90;;;;;;5034997;28;20228;-50
2022/11/23 10:27:16;;;;;;;1.60;0.60;;;10.60;99.90;;;;;;5035442;28;20282;-51
2022/11/23 10:29:43;;;;;;;1.47;0.57;;;10.20;99.90;;;;;;5035522;28;20260;-51
2022/11/23 10:32:25;;;;;;;1.13;1.00;;;9.90;99.90;;;;;;5024922;28;20199;-50
2022/11/23 10:35:00;;;;;;;2.43;1.13;;;9.70;99.90;;;;;;5019252;28;20224;-50
2022/11/23 10:37:29;;;;;;;1.45;0.60;;;9.50;99.90;;;;;;5012506;28;20826;-51
2022/11/23 10:39:57;;;;;;;2.50;0.40;;;9.40;99.90;;;;;;5021694;28;20241;-51
2022/11/23 10:42:30;;;;;;;1.17;0.57;;;9.50;99.90;;;;;;5032851;23;20229;-49
2022/11/23 10:44:59;;;;;;;1.13;0.40;;;9.40;99.90;;;;;;5013390;28;20208;-48
2022/11/23 10:47:38;;;;;;;1.53;0.50;;;9.30;99.90;;;;;;5014505;28;20199;-49
2022/11/23 10:50:23;;;;;;;1.50;0.60;;;9.30;99.90;;;;;;5015094;28;20197;-47
2022/11/23 10:52:54;;;;;;;1.27;0.60;;;9.30;99.90;;;;;;5013045;28;20229;-49
2022/11/23 10:55:26;;;;;;;0.40;0.40;;;9.30;99.90;;;;;;5014117;28;20255;-48
2022/11/23 10:57:54;;;;;;;1.50;0.30;;;9.20;99.90;;;;;;5014895;28;20209;-47
2022/11/23 11:00:23;;;;;;;3.80;0.70;;;9.30;99.90;;;;;;5004863;28;20228;-49
2022/11/23 11:02:52;;;;;;;1.27;0.60;;;9.40;99.90;;;;;;5012217;28;20223;-49
2022/11/23 11:05:28;;;;;;;1.03;0.43;;;9.50;99.90;;;;;;5013773;28;20205;-49
2022/11/23 11:07:58;;;;;;;1.47;0.50;;;9.50;99.90;;;;;;5013816;28;20690;-48
2022/11/23 11:10:48;;;;;;;1.53;0.40;;;9.50;99.90;;;;;;5014072;28;20203;-48
2022/11/23 11:13:28;;;;;;;0.30;0.30;;;9.50;99.90;;;;;;5000226;28;20221;-47
2022/11/23 11:15:58;;;;;;;1.33;0.33;;;9.50;99.90;;;;;;5004931;28;20593;-47
2022/11/23 11:18:30;;;;;;;0.80;0.27;;;9.50;99.90;;;;;;5007371;28;20670;-48
2022/11/23 11:21:03;;;;;;;2.20;0.40;;;9.40;99.90;;;;;;5011229;28;20703;-48
2022/11/23 11:23:33;;;;;;;1.53;0.30;;;9.50;99.90;;;;;;5007878;28;20212;-49
2022/11/23 11:26:19;;;;;;;0.47;0.27;;;9.50;99.90;;;;;;5010884;28;20264;-48
2022/11/23 11:28:50;;;;;;;1.20;0.30;;;9.40;99.90;;;;;;5012233;28;20201;-49
2022/11/23 11:31:39;;;;;;;1.17;0.20;;;9.50;99.90;;;;;;5010642;28;20236;-49
2022/11/23 11:34:16;;;;;;;2.10;0.20;;;9.50;99.90;;;;;;5011053;28;20223;-48
2022/11/23 11:36:49;;;;;;;0.20;0.20;;;9.50;99.90;;;;;;5009741;28;20205;-48
2022/11/23 11:39:21;;;;;;;0.57;0.40;;;9.40;99.90;;;;;;5012297;28;20675;-49
2022/11/23 11:41:51;;;;;;;0.23;0.20;;;9.40;99.90;;;;;;5011069;28;20229;-49
2022/11/23 11:44:21;;;;;;;5.20;0.50;;;9.40;99.90;;;;;;5011444;28;20224;-48
2022/11/23 11:46:54;;;;;;;0.50;0.20;;;9.40;99.90;;;;;;5012645;28;20236;-48
2022/11/23 11:49:29;;;;;;;0.20;0.20;;;9.40;99.90;;;;;;5012030;28;20232;-48
2022/11/23 11:52:02;;;;;;;0.70;0.70;;;9.50;99.90;;;;;;5010689;28;20231;-48
2022/11/23 11:54:39;;;;;;;0.40;0.30;;;9.40;99.90;;;;;;5012113;28;20208;-48
2022/11/23 11:57:15;;;;;;;0.93;0.50;;;9.50;99.90;;;;;;5007633;28;20197;-49
2022/11/23 11:59:45;;;;;;;2.60;0.50;;;9.60;99.90;;;;;;5009887;28;20204;-48
2022/11/23 12:02:23;;;;;;;0.50;0.10;;;9.50;99.90;;;;;;5008477;28;20232;-48
2022/11/23 12:05:02;;;;;;;0.43;0.30;;;9.60;99.90;;;;;;5011048;28;20210;-49
2022/11/23 12:07:32;;;;;;;0.87;0.30;;;9.70;99.90;;;;;;5006332;28;20209;-50
2022/11/23 12:10:06;;;;;;;2.90;0.30;;;9.70;99.90;;;;;;5011406;28;20205;-48
2022/11/23 12:12:36;;;;;;;0.50;0.20;;;9.60;99.90;;;;;;5009699;28;20224;-48
2022/11/23 12:15:05;;;;;;;0.80;0.20;;;9.60;99.90;;;;;;5011086;28;20256;-47
2022/11/23 12:17:46;;;;;;;0.20;0.20;;;9.50;99.90;;;;;;5011898;28;20209;-50
2022/11/23 12:20:22;;;;;;;1.67;0.30;;;9.50;99.90;;;;;;5004061;28;20735;-48
2022/11/23 12:23:04;;;;;;;1.43;0.40;;;9.50;99.90;;;;;;5006331;28;20610;-48
2022/11/23 12:25:35;;;;;;;0.63;0.20;;;9.50;99.90;;;;;;5010193;28;20209;-48
2022/11/23 12:28:31;;;;;;;2.20;0.20;;;9.50;99.90;;;;;;5012008;28;20595;-48
2022/11/23 12:31:08;;;;;;;1.70;0.30;;;9.50;99.90;;;;;;5007807;28;20193;-47
2022/11/23 12:33:52;;;;;;;0.30;0.30;;;9.60;99.90;;;;;;5002930;28;20209;-47
2022/11/23 12:36:52;;;;;;;1.20;0.23;;;9.60;99.90;;;;;;5004059;28;20224;-48
2022/11/23 12:39:36;;;;;;;1.20;0.20;;;9.70;99.90;;;;;;4999422;28;20205;-48
2022/11/23 12:42:12;;;;;;;0.30;0.30;;;9.60;99.90;;;;;;5004255;28;20320;-48
2022/11/23 12:44:56;;;;;;;0.30;0.27;;;9.60;99.90;;;;;;5005193;28;20209;-49
2022/11/23 12:47:37;;;;;;;0.17;0.17;;;9.60;99.90;;;;;;5007121;28;20239;-50
2022/11/23 12:50:18;;;;;;;1.50;0.23;;;9.60;99.90;;;;;;5003136;28;20698;-49
2022/11/23 12:52:58;;;;;;;0.97;0.20;;;9.60;99.90;;;;;;5003309;28;20466;-49
2022/11/23 12:55:32;;;;;;;1.63;0.20;;;9.60;99.90;;;;;;5004577;28;20292;-48
2022/11/23 12:58:05;;;;;;;0.20;0.10;;;9.50;99.90;;;;;;5011622;28;20612;-48
2022/11/23 13:00:38;;;;;;;0.50;0.40;;;9.50;99.90;;;;;;5011279;28;20324;-50
2022/11/23 13:03:38;;;;;;;0.10;0.10;;;9.50;99.90;;;;;;5007399;28;20319;-48
2022/11/23 13:06:36;;;;;;;0.20;0.20;;;9.50;99.90;;;;;;5008583;28;20207;-48
2022/11/23 13:09:30;;;;;;;0.70;0.20;;;9.60;99.90;;;;;;4986895;28;20202;-50
2022/11/23 13:12:17;;;;;;;0.27;0.27;;;9.60;99.90;;;;;;5010608;28;20225;-50